sensor_id;sensor_type;location;lat;lon;timestamp;pressure;altitude;pressure_sealevel;temperature;humidity
40982;BME280;26708;50.304;19.028;2022-08-24T00:00:41;98546.84;;;22.75;79.17
40982;BME280;26708;50.304;19.028;2022-08-24T00:03:43;98562.53;;;22.81;79.41
40982;BME280;26708;50.304;19.028;2022-08-24T00:06:45;98570.59;;;22.79;79.41
40982;BME280;26708;50.304;19.028;2022-08-24T00:09:46;98563.19;;;22.87;79.05
40982;BME280;26708;50.304;19.028;2022-08-24T00:12:47;98539.88;;;22.72;79.02
40982;BME280;26708;50.304;19.028;2022-08-24T00:15:49;98567.56;;;22.88;78.85
40982;BME280;26708;50.304;19.028;2022-08-24T00:18:51;98572.94;;;22.87;78.79
40982;BME280;26708;50.304;19.028;2022-08-24T00:21:52;98572.97;;;22.85;78.95
40982;BME280;26708;50.304;19.028;2022-08-24T00:24:53;98553.72;;;22.80;79.02
40982;BME280;26708;50.304;19.028;2022-08-24T00:27:54;98559.69;;;22.85;79.03
40982;BME280;26708;50.304;19.028;2022-08-24T00:30:55;98563.97;;;22.89;79.08
40982;BME280;26708;50.304;19.028;2022-08-24T00:33:56;98570.19;;;22.90;79.24
40982;BME280;26708;50.304;19.028;2022-08-24T00:36:56;98542.28;;;22.78;79.13
40982;BME280;26708;50.304;19.028;2022-08-24T00:39:57;98565.84;;;22.87;79.11
40982;BME280;26708;50.304;19.028;2022-08-24T00:42:59;98575.41;;;22.91;79.06
40982;BME280;26708;50.304;19.028;2022-08-24T00:49:07;98567.44;;;22.91;79.13
40982;BME280;26708;50.304;19.028;2022-08-24T00:52:21;98574.28;;;22.97;79.30
40982;BME280;26708;50.304;19.028;2022-08-24T00:55:37;98567.16;;;22.99;79.23
40982;BME280;26708;50.304;19.028;2022-08-24T00:58:47;98561.16;;;22.94;79.23
40982;BME280;26708;50.304;19.028;2022-08-24T01:01:51;98567.25;;;22.96;79.24
40982;BME280;26708;50.304;19.028;2022-08-24T01:05:00;98552.78;;;22.81;79.35
40982;BME280;26708;50.304;19.028;2022-08-24T01:08:03;98578.00;;;22.93;79.20
40982;BME280;26708;50.304;19.028;2022-08-24T01:11:19;98577.13;;;22.92;79.63
40982;BME280;26708;50.304;19.028;2022-08-24T01:14:21;98578.19;;;22.88;79.58
40982;BME280;26708;50.304;19.028;2022-08-24T01:17:24;98584.44;;;22.87;79.93
40982;BME280;26708;50.304;19.028;2022-08-24T01:20:45;98582.94;;;22.80;80.14
40982;BME280;26708;50.304;19.028;2022-08-24T01:23:50;98589.91;;;22.83;80.10
40982;BME280;26708;50.304;19.028;2022-08-24T01:26:52;98595.28;;;22.81;80.37
40982;BME280;26708;50.304;19.028;2022-08-24T01:29:53;98588.47;;;22.74;80.59
40982;BME280;26708;50.304;19.028;2022-08-24T01:32:58;98596.25;;;22.79;80.71
40982;BME280;26708;50.304;19.028;2022-08-24T01:36:06;98602.44;;;22.79;80.88
40982;BME280;26708;50.304;19.028;2022-08-24T01:39:13;98584.09;;;22.73;81.08
40982;BME280;26708;50.304;19.028;2022-08-24T01:42:17;98598.13;;;22.77;80.93
40982;BME280;26708;50.304;19.028;2022-08-24T01:45:19;98584.78;;;22.78;80.90
40982;BME280;26708;50.304;19.028;2022-08-24T01:48:20;98569.47;;;22.62;81.19
40982;BME280;26708;50.304;19.028;2022-08-24T01:51:21;98585.00;;;22.72;81.43
40982;BME280;26708;50.304;19.028;2022-08-24T01:54:22;98581.56;;;22.70;81.30
40982;BME280;26708;50.304;19.028;2022-08-24T01:57:25;98585.09;;;22.69;81.38
40982;BME280;26708;50.304;19.028;2022-08-24T02:00:26;98586.03;;;22.68;81.66
40982;BME280;26708;50.304;19.028;2022-08-24T02:03:27;98575.50;;;22.67;81.50
40982;BME280;26708;50.304;19.028;2022-08-24T02:06:30;98575.59;;;22.64;81.77
40982;BME280;26708;50.304;19.028;2022-08-24T02:09:32;98576.28;;;22.69;81.66
40982;BME280;26708;50.304;19.028;2022-08-24T02:12:36;98580.53;;;22.73;81.57
40982;BME280;26708;50.304;19.028;2022-08-24T02:15:38;98568.31;;;22.69;81.58
40982;BME280;26708;50.304;19.028;2022-08-24T02:18:43;98573.50;;;22.72;81.55
40982;BME280;26708;50.304;19.028;2022-08-24T02:21:44;98569.34;;;22.65;81.53
40982;BME280;26708;50.304;19.028;2022-08-24T02:24:47;98581.56;;;22.70;81.66
40982;BME280;26708;50.304;19.028;2022-08-24T02:27:48;98580.69;;;22.70;81.61
40982;BME280;26708;50.304;19.028;2022-08-24T02:30:49;98589.56;;;22.69;81.22
40982;BME280;26708;50.304;19.028;2022-08-24T02:33:50;98579.22;;;22.61;81.26
40982;BME280;26708;50.304;19.028;2022-08-24T02:36:51;98590.59;;;22.65;81.34
40982;BME280;26708;50.304;19.028;2022-08-24T02:39:54;98596.56;;;22.71;81.30
40982;BME280;26708;50.304;19.028;2022-08-24T02:42:57;98600.81;;;22.75;81.23
40982;BME280;26708;50.304;19.028;2022-08-24T02:48:58;98593.78;;;22.74;80.79
40982;BME280;26708;50.304;19.028;2022-08-24T02:51:59;98599.72;;;22.81;80.59
40982;BME280;26708;50.304;19.028;2022-08-24T02:55:00;98595.28;;;22.81;80.68
40982;BME280;26708;50.304;19.028;2022-08-24T02:58:01;98594.34;;;22.82;80.70
40982;BME280;26708;50.304;19.028;2022-08-24T03:01:05;98604.94;;;22.84;80.56
40982;BME280;26708;50.304;19.028;2022-08-24T03:04:06;98592.50;;;22.84;80.40
40982;BME280;26708;50.304;19.028;2022-08-24T03:07:07;98593.44;;;22.83;80.07
40982;BME280;26708;50.304;19.028;2022-08-24T03:10:09;98592.66;;;22.80;80.27
40982;BME280;26708;50.304;19.028;2022-08-24T03:13:10;98594.47;;;22.79;80.26
40982;BME280;26708;50.304;19.028;2022-08-24T03:16:12;98605.91;;;22.81;80.46
40982;BME280;26708;50.304;19.028;2022-08-24T03:19:13;98600.78;;;22.77;80.54
40982;BME280;26708;50.304;19.028;2022-08-24T03:22:16;98608.34;;;22.87;80.32
40982;BME280;26708;50.304;19.028;2022-08-24T03:25:20;98610.13;;;22.87;79.96
40982;BME280;26708;50.304;19.028;2022-08-24T03:28:22;98598.88;;;22.80;80.14
40982;BME280;26708;50.304;19.028;2022-08-24T03:31:23;98612.72;;;22.88;80.19
40982;BME280;26708;50.304;19.028;2022-08-24T03:34:24;98604.81;;;22.87;79.97
40982;BME280;26708;50.304;19.028;2022-08-24T03:37:25;98601.56;;;22.79;80.02
40982;BME280;26708;50.304;19.028;2022-08-24T03:40:27;98627.03;;;22.84;80.13
40982;BME280;26708;50.304;19.028;2022-08-24T03:43:30;98617.38;;;22.82;80.21
40982;BME280;26708;50.304;19.028;2022-08-24T03:46:47;98620.78;;;22.85;79.97
40982;BME280;26708;50.304;19.028;2022-08-24T03:49:48;98625.34;;;22.82;80.00
40982;BME280;26708;50.304;19.028;2022-08-24T03:52:50;98632.16;;;22.89;80.12
40982;BME280;26708;50.304;19.028;2022-08-24T03:55:51;98633.97;;;22.88;79.87
40982;BME280;26708;50.304;19.028;2022-08-24T03:58:52;98627.69;;;22.91;80.15
40982;BME280;26708;50.304;19.028;2022-08-24T04:01:54;98625.06;;;22.89;79.87
40982;BME280;26708;50.304;19.028;2022-08-24T04:04:57;98623.97;;;22.95;79.83
40982;BME280;26708;50.304;19.028;2022-08-24T04:07:58;98620.56;;;22.91;79.57
40982;BME280;26708;50.304;19.028;2022-08-24T04:11:00;98625.97;;;22.90;79.63
40982;BME280;26708;50.304;19.028;2022-08-24T04:14:01;98630.38;;;22.89;79.64
40982;BME280;26708;50.304;19.028;2022-08-24T04:17:02;98616.31;;;22.87;79.82
40982;BME280;26708;50.304;19.028;2022-08-24T04:20:11;98613.69;;;22.86;79.94
40982;BME280;26708;50.304;19.028;2022-08-24T04:23:13;98596.44;;;22.74;80.03
40982;BME280;26708;50.304;19.028;2022-08-24T04:26:16;98614.59;;;22.86;79.93
40982;BME280;26708;50.304;19.028;2022-08-24T04:29:18;98613.69;;;22.86;79.97
40982;BME280;26708;50.304;19.028;2022-08-24T04:32:25;98618.97;;;22.87;80.04
40982;BME280;26708;50.304;19.028;2022-08-24T04:35:27;98611.91;;;22.86;79.87
40982;BME280;26708;50.304;19.028;2022-08-24T04:38:28;98607.50;;;22.85;80.03
40982;BME280;26708;50.304;19.028;2022-08-24T04:41:51;98610.28;;;22.82;80.14
40982;BME280;26708;50.304;19.028;2022-08-24T04:44:54;98609.50;;;22.80;80.48
40982;BME280;26708;50.304;19.028;2022-08-24T04:47:57;98617.31;;;22.83;80.45
40982;BME280;26708;50.304;19.028;2022-08-24T04:51:02;98614.03;;;22.77;80.46
40982;BME280;26708;50.304;19.028;2022-08-24T04:54:08;98605.28;;;22.75;80.36
40982;BME280;26708;50.304;19.028;2022-08-24T04:57:09;98623.34;;;22.88;80.10
40982;BME280;26708;50.304;19.028;2022-08-24T05:00:11;98626.81;;;22.90;80.04
40982;BME280;26708;50.304;19.028;2022-08-24T05:03:16;98595.31;;;22.80;80.32
40982;BME280;26708;50.304;19.028;2022-08-24T05:06:19;98608.09;;;22.93;80.17
40982;BME280;26708;50.304;19.028;2022-08-24T05:09:21;98620.22;;;23.00;79.88
40982;BME280;26708;50.304;19.028;2022-08-24T05:12:22;98610.88;;;22.90;79.69
40982;BME280;26708;50.304;19.028;2022-08-24T05:15:32;98615.03;;;22.97;79.93
40982;BME280;26708;50.304;19.028;2022-08-24T05:18:33;98618.56;;;22.98;79.85
40982;BME280;26708;50.304;19.028;2022-08-24T05:21:35;98606.13;;;22.98;79.98
40982;BME280;26708;50.304;19.028;2022-08-24T05:24:36;98621.97;;;23.01;79.69
40982;BME280;26708;50.304;19.028;2022-08-24T05:27:41;98583.94;;;22.76;79.57
40982;BME280;26708;50.304;19.028;2022-08-24T05:30:48;98539.66;;;22.55;80.09
40982;BME280;26708;50.304;19.028;2022-08-24T05:33:50;98630.00;;;23.00;79.91
40982;BME280;26708;50.304;19.028;2022-08-24T05:36:51;98635.97;;;23.05;79.84
40982;BME280;26708;50.304;19.028;2022-08-24T05:40:11;98615.19;;;22.93;79.81
40982;BME280;26708;50.304;19.028;2022-08-24T05:43:15;98623.56;;;23.05;79.63
40982;BME280;26708;50.304;19.028;2022-08-24T05:46:25;98567.41;;;22.70;79.50
40982;BME280;26708;50.304;19.028;2022-08-24T05:49:32;98626.09;;;23.08;79.68
40982;BME280;26708;50.304;19.028;2022-08-24T05:52:33;98631.19;;;23.14;79.72
40982;BME280;26708;50.304;19.028;2022-08-24T05:55:37;98613.81;;;23.06;79.50
40982;BME280;26708;50.304;19.028;2022-08-24T05:58:38;98635.56;;;23.17;79.53
40982;BME280;26708;50.304;19.028;2022-08-24T06:01:41;98633.59;;;23.22;79.56
40982;BME280;26708;50.304;19.028;2022-08-24T06:04:45;98630.75;;;23.26;79.38
40982;BME280;26708;50.304;19.028;2022-08-24T06:07:46;98611.63;;;23.17;78.92
40982;BME280;26708;50.304;19.028;2022-08-24T06:10:48;98601.94;;;23.14;78.82
40982;BME280;26708;50.304;19.028;2022-08-24T06:13:50;98643.78;;;23.32;78.41
40982;BME280;26708;50.304;19.028;2022-08-24T06:16:52;98636.63;;;23.34;78.09
40982;BME280;26708;50.304;19.028;2022-08-24T06:19:56;98620.03;;;23.28;77.73
40982;BME280;26708;50.304;19.028;2022-08-24T06:22:59;98633.84;;;23.37;77.97
40982;BME280;26708;50.304;19.028;2022-08-24T06:26:07;98640.09;;;23.36;78.05
40982;BME280;26708;50.304;19.028;2022-08-24T06:29:27;98630.44;;;23.34;77.74
40982;BME280;26708;50.304;19.028;2022-08-24T06:32:33;98657.50;;;23.45;77.68
40982;BME280;26708;50.304;19.028;2022-08-24T06:35:34;98657.41;;;23.46;77.37
40982;BME280;26708;50.304;19.028;2022-08-24T06:38:35;98656.38;;;23.50;77.65
40982;BME280;26708;50.304;19.028;2022-08-24T06:41:39;98656.25;;;23.53;77.70
40982;BME280;26708;50.304;19.028;2022-08-24T06:44:44;98658.91;;;23.53;77.40
40982;BME280;26708;50.304;19.028;2022-08-24T06:47:53;98653.22;;;23.62;77.49
40982;BME280;26708;50.304;19.028;2022-08-24T06:50:57;98657.44;;;23.68;77.09
40982;BME280;26708;50.304;19.028;2022-08-24T06:53:58;98651.94;;;23.72;76.68
40982;BME280;26708;50.304;19.028;2022-08-24T06:56:59;98660.72;;;23.74;76.02
40982;BME280;26708;50.304;19.028;2022-08-24T07:00:01;98644.25;;;23.65;75.70
40982;BME280;26708;50.304;19.028;2022-08-24T07:03:04;98663.25;;;23.77;74.92
40982;BME280;26708;50.304;19.028;2022-08-24T07:06:06;98669.25;;;23.82;75.36
40982;BME280;26708;50.304;19.028;2022-08-24T07:09:10;98656.97;;;23.78;75.27
40982;BME280;26708;50.304;19.028;2022-08-24T07:12:12;98662.16;;;23.83;75.16
40982;BME280;26708;50.304;19.028;2022-08-24T07:15:13;98662.19;;;23.81;74.93
40982;BME280;26708;50.304;19.028;2022-08-24T07:18:17;98656.09;;;23.79;75.26
40982;BME280;26708;50.304;19.028;2022-08-24T07:21:21;98652.50;;;23.80;75.36
40982;BME280;26708;50.304;19.028;2022-08-24T07:24:24;98662.72;;;23.91;75.64
40982;BME280;26708;50.304;19.028;2022-08-24T07:27:25;98674.22;;;23.91;75.86
40982;BME280;26708;50.304;19.028;2022-08-24T07:30:27;98675.94;;;23.92;75.72
40982;BME280;26708;50.304;19.028;2022-08-24T07:33:28;98665.56;;;23.86;75.95
40982;BME280;26708;50.304;19.028;2022-08-24T07:36:29;98674.22;;;23.91;76.16
40982;BME280;26708;50.304;19.028;2022-08-24T07:39:30;98669.69;;;23.93;75.69
40982;BME280;26708;50.304;19.028;2022-08-24T07:42:37;98679.31;;;23.97;75.85
40982;BME280;26708;50.304;19.028;2022-08-24T07:45:49;98671.19;;;24.00;75.95
40982;BME280;26708;50.304;19.028;2022-08-24T07:48:52;98666.69;;;24.02;75.68
40982;BME280;26708;50.304;19.028;2022-08-24T07:51:53;98656.84;;;24.04;74.91
40982;BME280;26708;50.304;19.028;2022-08-24T07:54:53;98670.13;;;24.04;74.39
40982;BME280;26708;50.304;19.028;2022-08-24T07:57:54;98659.94;;;23.93;74.32
40982;BME280;26708;50.304;19.028;2022-08-24T08:00:56;98673.44;;;24.09;74.58
40982;BME280;26708;50.304;19.028;2022-08-24T08:03:57;98669.88;;;24.10;74.24
40982;BME280;26708;50.304;19.028;2022-08-24T08:07:00;98689.97;;;24.17;73.32
40982;BME280;26708;50.304;19.028;2022-08-24T08:10:02;98699.78;;;24.16;72.92
40982;BME280;26708;50.304;19.028;2022-08-24T08:13:05;98701.56;;;24.16;73.08
40982;BME280;26708;50.304;19.028;2022-08-24T08:16:06;98703.22;;;24.18;73.41
40982;BME280;26708;50.304;19.028;2022-08-24T08:19:07;98705.88;;;24.18;73.28
40982;BME280;26708;50.304;19.028;2022-08-24T08:22:08;98700.50;;;24.20;73.10
40982;BME280;26708;50.304;19.028;2022-08-24T08:25:51;98701.16;;;24.25;73.33
40982;BME280;26708;50.304;19.028;2022-08-24T08:29:07;98695.00;;;24.24;73.37
40982;BME280;26708;50.304;19.028;2022-08-24T08:32:11;98694.06;;;24.25;73.10
40982;BME280;26708;50.304;19.028;2022-08-24T08:35:16;98718.38;;;24.38;73.27
40982;BME280;26708;50.304;19.028;2022-08-24T08:38:17;98711.84;;;24.45;73.30
40982;BME280;26708;50.304;19.028;2022-08-24T08:41:51;98709.94;;;24.48;72.79
40982;BME280;26708;50.304;19.028;2022-08-24T08:45:32;98704.53;;;24.50;72.83
40982;BME280;26708;50.304;19.028;2022-08-24T08:59:27;98707.84;;;24.56;72.52
40982;BME280;26708;50.304;19.028;2022-08-24T09:06:01;98714.09;;;24.55;72.99
40982;BME280;26708;50.304;19.028;2022-08-24T09:30:24;98684.44;;;24.63;72.15
40982;BME280;26708;50.304;19.028;2022-08-24T09:33:43;98709.09;;;24.88;72.00
40982;BME280;26708;50.304;19.028;2022-08-24T09:40:39;98715.50;;;25.04;71.14
40982;BME280;26708;50.304;19.028;2022-08-24T10:00:54;98695.53;;;25.12;70.06
40982;BME280;26708;50.304;19.028;2022-08-24T10:07:20;98694.53;;;25.15;70.92
40982;BME280;26708;50.304;19.028;2022-08-24T10:13:34;98691.19;;;25.30;70.74
40982;BME280;26708;50.304;19.028;2022-08-24T10:16:52;98690.75;;;25.39;69.96
40982;BME280;26708;50.304;19.028;2022-08-24T10:20:21;98688.59;;;25.47;70.17
40982;BME280;26708;50.304;19.028;2022-08-24T10:23:44;98688.31;;;25.53;69.43
40982;BME280;26708;50.304;19.028;2022-08-24T10:27:03;98695.31;;;25.55;69.75
40982;BME280;26708;50.304;19.028;2022-08-24T10:33:53;98689.91;;;25.57;69.14
40982;BME280;26708;50.304;19.028;2022-08-24T10:40:20;98684.03;;;25.67;70.10
40982;BME280;26708;50.304;19.028;2022-08-24T10:43:56;98682.25;;;25.68;69.05
40982;BME280;26708;50.304;19.028;2022-08-24T10:47:10;98680.38;;;25.70;67.81
40982;BME280;26708;50.304;19.028;2022-08-24T10:50:19;98684.31;;;25.80;68.04
40982;BME280;26708;50.304;19.028;2022-08-24T10:53:30;98687.94;;;25.79;67.62
40982;BME280;26708;50.304;19.028;2022-08-24T10:56:41;98697.53;;;25.83;67.96
40982;BME280;26708;50.304;19.028;2022-08-24T11:03:04;98684.56;;;25.94;67.13
40982;BME280;26708;50.304;19.028;2022-08-24T11:06:13;98688.81;;;25.98;66.04
40982;BME280;26708;50.304;19.028;2022-08-24T11:09:15;98693.94;;;26.02;65.57
40982;BME280;26708;50.304;19.028;2022-08-24T11:12:31;98691.03;;;26.07;65.70
40982;BME280;26708;50.304;19.028;2022-08-24T11:15:32;98685.69;;;26.07;66.20
40982;BME280;26708;50.304;19.028;2022-08-24T11:18:53;98701.09;;;26.19;66.58
40982;BME280;26708;50.304;19.028;2022-08-24T11:22:00;98686.94;;;26.17;66.93
40982;BME280;26708;50.304;19.028;2022-08-24T11:25:25;98670.31;;;26.12;66.61
40982;BME280;26708;50.304;19.028;2022-08-24T11:31:39;98671.75;;;26.36;66.51
40982;BME280;26708;50.304;19.028;2022-08-24T11:34:45;98668.75;;;26.42;65.75
40982;BME280;26708;50.304;19.028;2022-08-24T11:37:46;98686.34;;;26.46;66.45
40982;BME280;26708;50.304;19.028;2022-08-24T11:41:10;98683.69;;;26.46;66.62
40982;BME280;26708;50.304;19.028;2022-08-24T11:44:36;98685.41;;;26.47;65.67
40982;BME280;26708;50.304;19.028;2022-08-24T11:54:35;98667.38;;;26.52;66.15
40982;BME280;26708;50.304;19.028;2022-08-24T12:14:19;98679.94;;;26.84;65.49
40982;BME280;26708;50.304;19.028;2022-08-24T12:17:31;98685.59;;;26.78;63.97
40982;BME280;26708;50.304;19.028;2022-08-24T12:20:44;98692.19;;;26.71;64.46
40982;BME280;26708;50.304;19.028;2022-08-24T12:23:53;98681.03;;;26.63;65.24
40982;BME280;26708;50.304;19.028;2022-08-24T12:27:04;98679.31;;;26.62;65.79
40982;BME280;26708;50.304;19.028;2022-08-24T12:30:12;98678.44;;;26.61;65.04
40982;BME280;26708;50.304;19.028;2022-08-24T12:33:14;98686.31;;;26.64;65.41
40982;BME280;26708;50.304;19.028;2022-08-24T12:36:27;98681.69;;;26.68;65.51
40982;BME280;26708;50.304;19.028;2022-08-24T12:39:38;98673.34;;;26.74;66.40
40982;BME280;26708;50.304;19.028;2022-08-24T12:42:49;98664.13;;;26.79;64.61
40982;BME280;26708;50.304;19.028;2022-08-24T12:45:55;98663.00;;;26.83;64.74
40982;BME280;26708;50.304;19.028;2022-08-24T12:49:28;98655.63;;;26.88;65.25
40982;BME280;26708;50.304;19.028;2022-08-24T12:52:57;98657.53;;;26.86;64.25
40982;BME280;26708;50.304;19.028;2022-08-24T12:59:55;98649.06;;;26.94;66.71
40982;BME280;26708;50.304;19.028;2022-08-24T13:03:04;98663.06;;;26.99;65.42
40982;BME280;26708;50.304;19.028;2022-08-24T13:06:10;98652.19;;;27.02;65.25
40982;BME280;26708;50.304;19.028;2022-08-24T13:18:50;98661.00;;;27.04;64.10
40982;BME280;26708;50.304;19.028;2022-08-24T13:22:35;98660.91;;;27.05;64.53
40982;BME280;26708;50.304;19.028;2022-08-24T13:25:25;98657.84;;;27.13;64.79
40982;BME280;26708;50.304;19.028;2022-08-24T13:28:35;98660.53;;;27.13;64.70
40982;BME280;26708;50.304;19.028;2022-08-24T13:31:37;98663.19;;;27.13;64.83
40982;BME280;26708;50.304;19.028;2022-08-24T13:34:45;98660.31;;;27.17;64.08
40982;BME280;26708;50.304;19.028;2022-08-24T13:48:41;98635.22;;;27.20;66.08
40982;BME280;26708;50.304;19.028;2022-08-24T13:51:51;98623.06;;;27.13;63.46
40982;BME280;26708;50.304;19.028;2022-08-24T13:55:20;98632.28;;;27.24;63.94
40982;BME280;26708;50.304;19.028;2022-08-24T13:59:06;98597.97;;;27.15;63.61
40982;BME280;26708;50.304;19.028;2022-08-24T14:05:32;98612.59;;;27.41;63.75
40982;BME280;26708;50.304;19.028;2022-08-24T14:08:54;98486.25;;;26.74;63.46
40982;BME280;26708;50.304;19.028;2022-08-24T14:15:25;98601.03;;;27.56;63.95
40982;BME280;26708;50.304;19.028;2022-08-24T14:18:48;98601.03;;;27.56;62.65
40982;BME280;26708;50.304;19.028;2022-08-24T14:21:56;98603.97;;;27.51;62.57
40982;BME280;26708;50.304;19.028;2022-08-24T14:25:11;98603.47;;;27.45;62.28
40982;BME280;26708;50.304;19.028;2022-08-24T14:28:39;98604.75;;;27.38;62.51
40982;BME280;26708;50.304;19.028;2022-08-24T14:35:24;98600.59;;;27.32;63.35
40982;BME280;26708;50.304;19.028;2022-08-24T14:42:06;98598.09;;;27.29;64.19
40982;BME280;26708;50.304;19.028;2022-08-24T14:48:31;98591.88;;;27.29;63.82
40982;BME280;26708;50.304;19.028;2022-08-24T14:55:11;98611.78;;;27.23;63.01
40982;BME280;26708;50.304;19.028;2022-08-24T15:02:42;98611.28;;;27.17;63.74
40982;BME280;26708;50.304;19.028;2022-08-24T15:09:33;98606.38;;;26.92;63.98
40982;BME280;26708;50.304;19.028;2022-08-24T15:12:44;98539.66;;;26.58;64.26
40982;BME280;26708;50.304;19.028;2022-08-24T15:15:56;98565.47;;;26.75;64.24
40982;BME280;26708;50.304;19.028;2022-08-24T15:22:41;98637.25;;;27.15;63.80
40982;BME280;26708;50.304;19.028;2022-08-24T15:25:53;98632.75;;;27.15;64.32
40982;BME280;26708;50.304;19.028;2022-08-24T15:29:08;98632.75;;;27.15;64.67
40982;BME280;26708;50.304;19.028;2022-08-24T15:32:12;98620.25;;;27.16;64.40
40982;BME280;26708;50.304;19.028;2022-08-24T15:35:30;98612.16;;;27.17;64.72
40982;BME280;26708;50.304;19.028;2022-08-24T15:38:34;98599.72;;;27.16;64.84
40982;BME280;26708;50.304;19.028;2022-08-24T15:41:37;98582.16;;;27.11;65.19
40982;BME280;26708;50.304;19.028;2022-08-24T15:44:44;98603.00;;;27.21;65.01
40982;BME280;26708;50.304;19.028;2022-08-24T15:47:46;98621.84;;;27.20;65.35
40982;BME280;26708;50.304;19.028;2022-08-24T15:50:50;98622.84;;;27.17;64.21
40982;BME280;26708;50.304;19.028;2022-08-24T15:53:52;98625.59;;;27.16;64.71
40982;BME280;26708;50.304;19.028;2022-08-24T15:57:09;98634.59;;;27.15;64.69
40982;BME280;26708;50.304;19.028;2022-08-24T16:00:17;98634.59;;;27.15;64.88
40982;BME280;26708;50.304;19.028;2022-08-24T16:06:46;98615.91;;;27.13;65.43
40982;BME280;26708;50.304;19.028;2022-08-24T16:09:47;98599.94;;;27.12;65.10
40982;BME280;26708;50.304;19.028;2022-08-24T16:13:13;98611.28;;;27.17;64.89
40982;BME280;26708;50.304;19.028;2022-08-24T16:16:29;98627.31;;;27.17;65.04
40982;BME280;26708;50.304;19.028;2022-08-24T16:19:33;98630.19;;;27.14;64.82
40982;BME280;26708;50.304;19.028;2022-08-24T16:22:46;98624.09;;;27.10;65.01
40982;BME280;26708;50.304;19.028;2022-08-24T16:25:49;98643.56;;;27.14;64.82
40982;BME280;26708;50.304;19.028;2022-08-24T16:28:50;98628.91;;;27.04;64.79
40982;BME280;26708;50.304;19.028;2022-08-24T16:31:51;98619.78;;;27.08;65.26
40982;BME280;26708;50.304;19.028;2022-08-24T16:38:07;98618.91;;;27.07;65.26
40982;BME280;26708;50.304;19.028;2022-08-24T16:41:10;98631.25;;;27.10;65.37
40982;BME280;26708;50.304;19.028;2022-08-24T16:44:11;98624.59;;;27.01;65.93
40982;BME280;26708;50.304;19.028;2022-08-24T16:47:12;98626.94;;;27.07;65.98
40982;BME280;26708;50.304;19.028;2022-08-24T16:50:16;98615.09;;;26.96;65.93
40982;BME280;26708;50.304;19.028;2022-08-24T16:53:18;98617.75;;;26.96;65.82
40982;BME280;26708;50.304;19.028;2022-08-24T16:56:20;98592.28;;;26.73;66.23
40982;BME280;26708;50.304;19.028;2022-08-24T16:59:27;98624.56;;;26.86;66.13
40982;BME280;26708;50.304;19.028;2022-08-24T17:02:29;98572.75;;;26.56;66.09
40982;BME280;26708;50.304;19.028;2022-08-24T17:05:32;98619.13;;;26.87;66.21
40982;BME280;26708;50.304;19.028;2022-08-24T17:08:33;98624.63;;;26.84;65.99
40982;BME280;26708;50.304;19.028;2022-08-24T17:11:33;98628.34;;;26.82;66.26
40982;BME280;26708;50.304;19.028;2022-08-24T17:14:36;98633.53;;;26.85;66.07
40982;BME280;26708;50.304;19.028;2022-08-24T17:17:39;98620.09;;;26.86;66.62
40982;BME280;26708;50.304;19.028;2022-08-24T17:20:40;98609.72;;;26.80;66.25
40982;BME280;26708;50.304;19.028;2022-08-24T17:23:43;98614.28;;;26.78;65.79
40982;BME280;26708;50.304;19.028;2022-08-24T17:26:45;98630.94;;;26.83;65.88
40982;BME280;26708;50.304;19.028;2022-08-24T17:29:46;98627.81;;;26.75;65.89
40982;BME280;26708;50.304;19.028;2022-08-24T17:32:48;98641.78;;;26.80;66.04
40982;BME280;26708;50.304;19.028;2022-08-24T17:35:52;98655.41;;;26.76;66.17
40982;BME280;26708;50.304;19.028;2022-08-24T17:38:54;98655.91;;;26.67;65.40
40982;BME280;26708;50.304;19.028;2022-08-24T17:41:57;98661.47;;;26.62;64.38
40982;BME280;26708;50.304;19.028;2022-08-24T17:44:58;98655.16;;;26.46;62.34
40982;BME280;26708;50.304;19.028;2022-08-24T17:52:06;98674.72;;;26.13;62.05
40982;BME280;26708;50.304;19.028;2022-08-24T17:55:12;98676.91;;;26.05;62.12
40982;BME280;26708;50.304;19.028;2022-08-24T17:58:14;98668.69;;;25.91;61.40
40982;BME280;26708;50.304;19.028;2022-08-24T18:01:17;98661.13;;;25.82;60.88
40982;BME280;26708;50.304;19.028;2022-08-24T18:04:19;98650.75;;;25.57;60.97
40982;BME280;26708;50.304;19.028;2022-08-24T18:07:22;98671.03;;;25.61;61.19
40982;BME280;26708;50.304;19.028;2022-08-24T18:10:25;98671.31;;;25.55;61.44
40982;BME280;26708;50.304;19.028;2022-08-24T18:13:27;98676.88;;;25.51;60.77
40982;BME280;26708;50.304;19.028;2022-08-24T18:16:28;98671.47;;;25.34;61.18
40982;BME280;26708;50.304;19.028;2022-08-24T18:19:31;98656.75;;;25.25;61.28
40982;BME280;26708;50.304;19.028;2022-08-24T18:22:33;98692.22;;;25.46;61.91
40982;BME280;26708;50.304;19.028;2022-08-24T18:25:34;98700.28;;;25.44;61.44
40982;BME280;26708;50.304;19.028;2022-08-24T18:28:39;98679.59;;;25.31;61.12
40982;BME280;26708;50.304;19.028;2022-08-24T18:31:42;98683.19;;;25.30;61.18
40982;BME280;26708;50.304;19.028;2022-08-24T18:39:15;98691.13;;;25.11;62.34
40982;BME280;26708;50.304;19.028;2022-08-24T18:42:22;98694.75;;;25.10;62.00
40982;BME280;26708;50.304;19.028;2022-08-24T18:45:29;98705.56;;;25.07;62.50
40982;BME280;26708;50.304;19.028;2022-08-24T18:48:32;98649.72;;;24.66;62.64
40982;BME280;26708;50.304;19.028;2022-08-24T18:51:34;98695.59;;;24.92;62.98
40982;BME280;26708;50.304;19.028;2022-08-24T18:54:40;98690.38;;;24.89;62.92
40982;BME280;26708;50.304;19.028;2022-08-24T18:57:42;98697.31;;;24.93;63.18
40982;BME280;26708;50.304;19.028;2022-08-24T19:00:44;98686.13;;;24.85;63.73
40982;BME280;26708;50.304;19.028;2022-08-24T19:03:45;98689.78;;;24.83;63.48
40982;BME280;26708;50.304;19.028;2022-08-24T19:06:50;98649.97;;;24.60;63.29
40982;BME280;26708;50.304;19.028;2022-08-24T19:09:53;98691.72;;;24.79;63.87